sensor_id;sensor_type;location;lat;lon;timestamp;P1;durP1;ratioP1;P2;durP2;ratioP2
32242;SDS011;18731;42.830;24.390;2023-07-20T03:01:29;16.08;;;5.70;;
32242;SDS011;18731;42.830;24.390;2023-07-20T03:03:55;9.82;;;5.22;;
32242;SDS011;18731;42.830;24.390;2023-07-20T03:06:21;11.85;;;4.47;;
32242;SDS011;18731;42.830;24.390;2023-07-20T03:08:47;23.00;;;10.40;;
32242;SDS011;18731;42.830;24.390;2023-07-20T03:11:14;14.60;;;8.32;;
32242;SDS011;18731;42.830;24.390;2023-07-20T03:13:41;12.90;;;5.30;;
32242;SDS011;18731;42.830;24.390;2023-07-20T03:16:08;10.38;;;6.22;;
32242;SDS011;18731;42.830;24.390;2023-07-20T03:18:37;11.90;;;4.75;;
32242;SDS011;18731;42.830;24.390;2023-07-20T03:21:04;11.57;;;5.45;;
32242;SDS011;18731;42.830;24.390;2023-07-20T03:23:31;13.68;;;4.90;;
32242;SDS011;18731;42.830;24.390;2023-07-20T03:25:56;10.00;;;5.07;;
32242;SDS011;18731;42.830;24.390;2023-07-20T03:28:22;19.00;;;5.18;;
32242;SDS011;18731;42.830;24.390;2023-07-20T03:30:54;14.70;;;5.13;;
32242;SDS011;18731;42.830;24.390;2023-07-20T03:33:28;11.77;;;4.93;;
32242;SDS011;18731;42.830;24.390;2023-07-20T03:35:54;25.02;;;13.25;;
32242;SDS011;18731;42.830;24.390;2023-07-20T03:38:21;14.88;;;6.32;;
32242;SDS011;18731;42.830;24.390;2023-07-20T03:40:50;12.35;;;4.72;;
32242;SDS011;18731;42.830;24.390;2023-07-20T03:43:17;14.90;;;4.97;;
32242;SDS011;18731;42.830;24.390;2023-07-20T03:45:43;11.52;;;4.38;;
32242;SDS011;18731;42.830;24.390;2023-07-20T03:48:09;19.08;;;4.93;;
32242;SDS011;18731;42.830;24.390;2023-07-20T03:50:35;13.18;;;4.88;;
32242;SDS011;18731;42.830;24.390;2023-07-20T03:53:00;9.65;;;4.70;;
32242;SDS011;18731;42.830;24.390;2023-07-20T03:55:26;16.55;;;4.72;;
32242;SDS011;18731;42.830;24.390;2023-07-20T03:57:51;23.30;;;8.32;;
32242;SDS011;18731;42.830;24.390;2023-07-20T04:00:17;15.65;;;7.30;;
32242;SDS011;18731;42.830;24.390;2023-07-20T04:02:43;14.48;;;6.20;;
32242;SDS011;18731;42.830;24.390;2023-07-20T04:05:09;16.33;;;6.97;;
32242;SDS011;18731;42.830;24.390;2023-07-20T04:07:35;16.63;;;6.65;;
32242;SDS011;18731;42.830;24.390;2023-07-20T04:10:00;14.65;;;5.70;;
32242;SDS011;18731;42.830;24.390;2023-07-20T04:12:26;13.18;;;5.97;;
32242;SDS011;18731;42.830;24.390;2023-07-20T04:14:52;13.25;;;6.05;;
32242;SDS011;18731;42.830;24.390;2023-07-20T04:17:19;12.23;;;5.80;;
32242;SDS011;18731;42.830;24.390;2023-07-20T04:19:51;14.10;;;5.40;;
32242;SDS011;18731;42.830;24.390;2023-07-20T04:22:17;17.42;;;6.25;;
32242;SDS011;18731;42.830;24.390;2023-07-20T04:24:43;16.17;;;6.07;;
32242;SDS011;18731;42.830;24.390;2023-07-20T04:27:08;15.40;;;4.80;;
32242;SDS011;18731;42.830;24.390;2023-07-20T04:29:34;13.30;;;4.25;;
32242;SDS011;18731;42.830;24.390;2023-07-20T04:31:59;20.00;;;8.45;;
32242;SDS011;18731;42.830;24.390;2023-07-20T04:34:25;15.98;;;6.97;;
32242;SDS011;18731;42.830;24.390;2023-07-20T04:36:51;18.95;;;13.02;;
32242;SDS011;18731;42.830;24.390;2023-07-20T04:39:16;53.60;;;33.45;;
32242;SDS011;18731;42.830;24.390;2023-07-20T04:41:42;37.03;;;22.65;;
32242;SDS011;18731;42.830;24.390;2023-07-20T04:44:07;10.05;;;6.30;;
32242;SDS011;18731;42.830;24.390;2023-07-20T04:46:33;11.63;;;6.07;;
32242;SDS011;18731;42.830;24.390;2023-07-20T04:48:59;15.10;;;4.72;;
32242;SDS011;18731;42.830;24.390;2023-07-20T04:51:25;12.18;;;4.72;;
32242;SDS011;18731;42.830;24.390;2023-07-20T04:53:50;16.85;;;4.35;;
32242;SDS011;18731;42.830;24.390;2023-07-20T04:56:16;13.70;;;5.05;;
32242;SDS011;18731;42.830;24.390;2023-07-20T04:58:42;16.13;;;4.18;;
32242;SDS011;18731;42.830;24.390;2023-07-20T05:01:08;9.25;;;4.13;;
32242;SDS011;18731;42.830;24.390;2023-07-20T05:03:36;8.88;;;3.38;;
32242;SDS011;18731;42.830;24.390;2023-07-20T05:06:02;15.73;;;4.80;;
32242;SDS011;18731;42.830;24.390;2023-07-20T05:08:27;9.27;;;4.35;;
32242;SDS011;18731;42.830;24.390;2023-07-20T05:10:53;11.23;;;4.15;;
32242;SDS011;18731;42.830;24.390;2023-07-20T05:13:19;10.48;;;3.80;;
32242;SDS011;18731;42.830;24.390;2023-07-20T05:15:45;8.38;;;3.92;;
32242;SDS011;18731;42.830;24.390;2023-07-20T05:18:10;14.38;;;4.40;;
32242;SDS011;18731;42.830;24.390;2023-07-20T05:20:36;12.82;;;3.90;;
32242;SDS011;18731;42.830;24.390;2023-07-20T05:23:02;18.52;;;4.30;;
32242;SDS011;18731;42.830;24.390;2023-07-20T05:25:28;10.90;;;3.58;;
32242;SDS011;18731;42.830;24.390;2023-07-20T05:27:53;14.57;;;3.53;;
32242;SDS011;18731;42.830;24.390;2023-07-20T05:30:20;20.92;;;8.35;;
32242;SDS011;18731;42.830;24.390;2023-07-20T05:32:46;15.15;;;7.35;;
32242;SDS011;18731;42.830;24.390;2023-07-20T05:35:17;16.70;;;5.72;;
32242;SDS011;18731;42.830;24.390;2023-07-20T05:37:44;21.52;;;4.75;;
32242;SDS011;18731;42.830;24.390;2023-07-20T05:40:10;18.88;;;4.10;;
32242;SDS011;18731;42.830;24.390;2023-07-20T05:42:37;12.45;;;3.65;;
32242;SDS011;18731;42.830;24.390;2023-07-20T05:45:04;11.25;;;3.88;;
32242;SDS011;18731;42.830;24.390;2023-07-20T05:47:30;12.02;;;3.70;;
32242;SDS011;18731;42.830;24.390;2023-07-20T05:49:57;11.40;;;3.42;;
32242;SDS011;18731;42.830;24.390;2023-07-20T05:52:22;17.02;;;3.50;;
32242;SDS011;18731;42.830;24.390;2023-07-20T05:54:48;11.43;;;3.30;;
32242;SDS011;18731;42.830;24.390;2023-07-20T05:57:14;12.80;;;3.38;;
32242;SDS011;18731;42.830;24.390;2023-07-20T05:59:39;12.38;;;3.63;;
32242;SDS011;18731;42.830;24.390;2023-07-20T06:02:09;10.13;;;3.67;;
32242;SDS011;18731;42.830;24.390;2023-07-20T06:04:35;13.32;;;3.50;;
32242;SDS011;18731;42.830;24.390;2023-07-20T06:07:01;13.63;;;3.38;;
32242;SDS011;18731;42.830;24.390;2023-07-20T06:09:27;13.93;;;3.75;;
32242;SDS011;18731;42.830;24.390;2023-07-20T06:11:54;14.65;;;3.20;;
32242;SDS011;18731;42.830;24.390;2023-07-20T06:14:20;13.50;;;3.67;;
32242;SDS011;18731;42.830;24.390;2023-07-20T06:16:45;15.48;;;3.70;;
32242;SDS011;18731;42.830;24.390;2023-07-20T06:19:11;8.73;;;3.28;;
32242;SDS011;18731;42.830;24.390;2023-07-20T06:21:37;13.18;;;3.70;;
32242;SDS011;18731;42.830;24.390;2023-07-20T06:24:03;12.75;;;3.83;;
32242;SDS011;18731;42.830;24.390;2023-07-20T06:26:29;11.20;;;4.60;;
32242;SDS011;18731;42.830;24.390;2023-07-20T06:28:56;21.90;;;10.05;;
32242;SDS011;18731;42.830;24.390;2023-07-20T06:31:22;24.23;;;12.50;;
32242;SDS011;18731;42.830;24.390;2023-07-20T06:33:48;12.98;;;4.47;;
32242;SDS011;18731;42.830;24.390;2023-07-20T06:36:15;11.43;;;3.22;;
32242;SDS011;18731;42.830;24.390;2023-07-20T06:38:43;12.98;;;3.38;;
32242;SDS011;18731;42.830;24.390;2023-07-20T06:41:08;16.67;;;3.70;;
32242;SDS011;18731;42.830;24.390;2023-07-20T06:43:34;13.95;;;3.50;;
32242;SDS011;18731;42.830;24.390;2023-07-20T06:46:00;15.38;;;3.58;;
32242;SDS011;18731;42.830;24.390;2023-07-20T06:48:26;11.60;;;3.03;;
32242;SDS011;18731;42.830;24.390;2023-07-20T06:50:51;8.40;;;3.03;;
32242;SDS011;18731;42.830;24.390;2023-07-20T06:53:17;10.15;;;3.30;;
32242;SDS011;18731;42.830;24.390;2023-07-20T06:55:43;12.43;;;3.65;;
32242;SDS011;18731;42.830;24.390;2023-07-20T06:58:09;8.88;;;3.33;;
32242;SDS011;18731;42.830;24.390;2023-07-20T07:00:35;16.25;;;3.53;;
32242;SDS011;18731;42.830;24.390;2023-07-20T07:03:01;14.73;;;3.72;;
32242;SDS011;18731;42.830;24.390;2023-07-20T07:05:28;11.35;;;2.97;;
32242;SDS011;18731;42.830;24.390;2023-07-20T07:07:53;12.18;;;3.67;;
32242;SDS011;18731;42.830;24.390;2023-07-20T07:10:19;12.75;;;3.70;;
32242;SDS011;18731;42.830;24.390;2023-07-20T07:12:45;14.60;;;3.35;;
32242;SDS011;18731;42.830;24.390;2023-07-20T07:15:10;14.18;;;3.58;;
32242;SDS011;18731;42.830;24.390;2023-07-20T07:17:36;12.02;;;3.20;;
32242;SDS011;18731;42.830;24.390;2023-07-20T07:20:02;9.95;;;3.03;;
32242;SDS011;18731;42.830;24.390;2023-07-20T07:22:29;9.20;;;3.53;;
32242;SDS011;18731;42.830;24.390;2023-07-20T07:24:55;10.20;;;3.67;;
32242;SDS011;18731;42.830;24.390;2023-07-20T07:27:21;11.70;;;3.95;;
32242;SDS011;18731;42.830;24.390;2023-07-20T07:29:47;12.25;;;3.38;;
32242;SDS011;18731;42.830;24.390;2023-07-20T07:32:15;11.05;;;3.60;;
32242;SDS011;18731;42.830;24.390;2023-07-20T07:34:41;10.05;;;3.40;;
32242;SDS011;18731;42.830;24.390;2023-07-20T07:37:06;10.13;;;3.63;;
32242;SDS011;18731;42.830;24.390;2023-07-20T07:39:32;12.43;;;3.60;;
32242;SDS011;18731;42.830;24.390;2023-07-20T07:41:58;16.40;;;3.60;;
32242;SDS011;18731;42.830;24.390;2023-07-20T07:44:24;12.60;;;3.10;;
32242;SDS011;18731;42.830;24.390;2023-07-20T07:46:50;9.85;;;3.20;;
32242;SDS011;18731;42.830;24.390;2023-07-20T07:49:16;16.83;;;3.80;;
32242;SDS011;18731;42.830;24.390;2023-07-20T07:51:43;14.00;;;3.42;;
32242;SDS011;18731;42.830;24.390;2023-07-20T07:54:09;15.45;;;3.70;;
32242;SDS011;18731;42.830;24.390;2023-07-20T07:56:35;10.18;;;3.60;;
32242;SDS011;18731;42.830;24.390;2023-07-20T07:59:00;12.32;;;3.08;;
32242;SDS011;18731;42.830;24.390;2023-07-20T08:01:26;11.20;;;3.63;;
32242;SDS011;18731;42.830;24.390;2023-07-20T08:03:51;11.23;;;3.55;;
32242;SDS011;18731;42.830;24.390;2023-07-20T08:06:17;12.77;;;3.65;;
32242;SDS011;18731;42.830;24.390;2023-07-20T08:08:43;9.02;;;3.70;;
32242;SDS011;18731;42.830;24.390;2023-07-20T08:11:08;12.40;;;3.60;;
32242;SDS011;18731;42.830;24.390;2023-07-20T08:13:34;14.15;;;3.80;;
32242;SDS011;18731;42.830;24.390;2023-07-20T08:16:00;11.13;;;3.75;;
32242;SDS011;18731;42.830;24.390;2023-07-20T08:18:27;13.82;;;4.05;;
32242;SDS011;18731;42.830;24.390;2023-07-20T08:20:53;12.55;;;3.83;;
32242;SDS011;18731;42.830;24.390;2023-07-20T08:23:19;8.02;;;3.33;;
32242;SDS011;18731;42.830;24.390;2023-07-20T08:25:45;11.80;;;3.47;;
32242;SDS011;18731;42.830;24.390;2023-07-20T08:28:11;7.30;;;3.00;;
32242;SDS011;18731;42.830;24.390;2023-07-20T08:30:46;9.60;;;2.92;;
32242;SDS011;18731;42.830;24.390;2023-07-20T08:33:14;7.22;;;2.58;;
32242;SDS011;18731;42.830;24.390;2023-07-20T08:35:41;7.53;;;2.50;;
32242;SDS011;18731;42.830;24.390;2023-07-20T08:38:08;8.57;;;2.45;;
32242;SDS011;18731;42.830;24.390;2023-07-20T08:40:39;4.63;;;2.10;;
32242;SDS011;18731;42.830;24.390;2023-07-20T08:43:06;8.65;;;2.30;;
32242;SDS011;18731;42.830;24.390;2023-07-20T08:45:35;5.95;;;2.72;;
32242;SDS011;18731;42.830;24.390;2023-07-20T08:48:04;10.27;;;3.30;;
32242;SDS011;18731;42.830;24.390;2023-07-20T08:50:31;8.35;;;3.10;;
32242;SDS011;18731;42.830;24.390;2023-07-20T08:52:58;8.70;;;3.33;;
32242;SDS011;18731;42.830;24.390;2023-07-20T08:55:27;11.80;;;3.88;;
32242;SDS011;18731;42.830;24.390;2023-07-20T08:57:54;12.93;;;3.83;;
32242;SDS011;18731;42.830;24.390;2023-07-20T09:00:21;15.82;;;4.15;;
32242;SDS011;18731;42.830;24.390;2023-07-20T09:02:49;13.00;;;4.13;;
32242;SDS011;18731;42.830;24.390;2023-07-20T09:05:19;12.15;;;3.80;;
32242;SDS011;18731;42.830;24.390;2023-07-20T09:07:45;9.63;;;4.00;;
32242;SDS011;18731;42.830;24.390;2023-07-20T09:10:11;15.02;;;4.40;;
32242;SDS011;18731;42.830;24.390;2023-07-20T09:12:39;11.23;;;4.03;;
32242;SDS011;18731;42.830;24.390;2023-07-20T09:15:05;13.63;;;4.68;;
32242;SDS011;18731;42.830;24.390;2023-07-20T09:17:32;12.52;;;4.13;;
32242;SDS011;18731;42.830;24.390;2023-07-20T09:19:58;16.48;;;4.32;;
32242;SDS011;18731;42.830;24.390;2023-07-20T09:22:30;20.42;;;4.47;;
32242;SDS011;18731;42.830;24.390;2023-07-20T09:24:58;22.75;;;4.75;;
32242;SDS011;18731;42.830;24.390;2023-07-20T09:27:37;12.13;;;4.15;;
32242;SDS011;18731;42.830;24.390;2023-07-20T09:30:04;15.95;;;4.57;;
32242;SDS011;18731;42.830;24.390;2023-07-20T09:32:37;12.75;;;4.22;;
32242;SDS011;18731;42.830;24.390;2023-07-20T09:35:05;8.85;;;4.20;;
32242;SDS011;18731;42.830;24.390;2023-07-20T09:37:38;10.15;;;4.10;;
32242;SDS011;18731;42.830;24.390;2023-07-20T09:40:03;12.77;;;4.13;;
32242;SDS011;18731;42.830;24.390;2023-07-20T09:42:32;15.15;;;4.10;;
32242;SDS011;18731;42.830;24.390;2023-07-20T09:45:01;14.18;;;4.00;;
32242;SDS011;18731;42.830;24.390;2023-07-20T09:47:31;11.95;;;3.38;;
32242;SDS011;18731;42.830;24.390;2023-07-20T09:50:03;9.60;;;3.47;;
32242;SDS011;18731;42.830;24.390;2023-07-20T09:52:29;10.18;;;3.58;;
32242;SDS011;18731;42.830;24.390;2023-07-20T09:54:56;12.57;;;3.65;;
32242;SDS011;18731;42.830;24.390;2023-07-20T09:57:24;12.13;;;3.33;;
32242;SDS011;18731;42.830;24.390;2023-07-20T09:59:51;13.70;;;3.88;;
32242;SDS011;18731;42.830;24.390;2023-07-20T10:02:20;12.73;;;3.95;;
32242;SDS011;18731;42.830;24.390;2023-07-20T10:04:53;10.23;;;3.53;;
32242;SDS011;18731;42.830;24.390;2023-07-20T10:07:19;8.43;;;3.60;;
32242;SDS011;18731;42.830;24.390;2023-07-20T10:09:50;9.73;;;3.30;;
32242;SDS011;18731;42.830;24.390;2023-07-20T10:12:18;12.43;;;4.05;;
32242;SDS011;18731;42.830;24.390;2023-07-20T10:14:53;10.27;;;3.85;;
32242;SDS011;18731;42.830;24.390;2023-07-20T10:17:34;14.05;;;3.40;;
32242;SDS011;18731;42.830;24.390;2023-07-20T10:20:05;11.30;;;3.50;;
32242;SDS011;18731;42.830;24.390;2023-07-20T10:22:34;7.40;;;3.75;;
32242;SDS011;18731;42.830;24.390;2023-07-20T10:25:01;12.23;;;3.90;;
32242;SDS011;18731;42.830;24.390;2023-07-20T10:27:27;15.02;;;3.38;;
32242;SDS011;18731;42.830;24.390;2023-07-20T10:29:53;9.45;;;3.40;;
32242;SDS011;18731;42.830;24.390;2023-07-20T10:32:20;6.85;;;3.00;;
32242;SDS011;18731;42.830;24.390;2023-07-20T10:34:53;7.15;;;2.80;;
32242;SDS011;18731;42.830;24.390;2023-07-20T10:40:26;8.50;;;2.95;;
32242;SDS011;18731;42.830;24.390;2023-07-20T10:48:19;13.02;;;3.22;;
32242;SDS011;18731;42.830;24.390;2023-07-20T10:51:08;8.48;;;3.05;;
32242;SDS011;18731;42.830;24.390;2023-07-20T10:53:39;10.57;;;2.85;;
32242;SDS011;18731;42.830;24.390;2023-07-20T10:56:06;10.15;;;2.85;;
32242;SDS011;18731;42.830;24.390;2023-07-20T10:58:34;12.00;;;2.67;;
32242;SDS011;18731;42.830;24.390;2023-07-20T11:01:01;8.07;;;2.58;;
32242;SDS011;18731;42.830;24.390;2023-07-20T11:03:32;10.65;;;2.78;;
32242;SDS011;18731;42.830;24.390;2023-07-20T11:05:59;8.77;;;2.72;;
32242;SDS011;18731;42.830;24.390;2023-07-20T11:11:33;8.65;;;2.70;;
32242;SDS011;18731;42.830;24.390;2023-07-20T11:14:01;5.53;;;2.78;;
32242;SDS011;18731;42.830;24.390;2023-07-20T11:16:44;10.02;;;3.00;;
32242;SDS011;18731;42.830;24.390;2023-07-20T11:19:15;11.00;;;2.80;;
32242;SDS011;18731;42.830;24.390;2023-07-20T11:21:41;7.40;;;2.90;;
32242;SDS011;18731;42.830;24.390;2023-07-20T11:24:09;9.95;;;3.13;;
32242;SDS011;18731;42.830;24.390;2023-07-20T11:26:48;11.25;;;3.30;;
32242;SDS011;18731;42.830;24.390;2023-07-20T11:29:15;7.28;;;3.00;;
32242;SDS011;18731;42.830;24.390;2023-07-20T11:31:43;8.98;;;3.10;;
32242;SDS011;18731;42.830;24.390;2023-07-20T11:34:13;7.75;;;2.95;;
32242;SDS011;18731;42.830;24.390;2023-07-20T11:36:41;9.63;;;2.85;;
32242;SDS011;18731;42.830;24.390;2023-07-20T11:39:09;11.27;;;3.72;;
32242;SDS011;18731;42.830;24.390;2023-07-20T11:41:35;6.63;;;2.45;;
32242;SDS011;18731;42.830;24.390;2023-07-20T11:44:01;6.13;;;2.78;;
32242;SDS011;18731;42.830;24.390;2023-07-20T11:46:28;8.93;;;2.63;;
32242;SDS011;18731;42.830;24.390;2023-07-20T11:48:58;8.07;;;2.70;;
32242;SDS011;18731;42.830;24.390;2023-07-20T11:51:30;7.93;;;3.10;;
32242;SDS011;18731;42.830;24.390;2023-07-20T11:53:56;12.45;;;3.10;;
32242;SDS011;18731;42.830;24.390;2023-07-20T11:56:23;11.35;;;2.80;;
32242;SDS011;18731;42.830;24.390;2023-07-20T11:58:50;10.98;;;3.10;;
32242;SDS011;18731;42.830;24.390;2023-07-20T12:01:19;10.57;;;2.92;;
32242;SDS011;18731;42.830;24.390;2023-07-20T12:03:45;7.40;;;2.88;;
32242;SDS011;18731;42.830;24.390;2023-07-20T12:06:13;5.28;;;3.17;;
32242;SDS011;18731;42.830;24.390;2023-07-20T12:08:42;8.68;;;3.20;;
32242;SDS011;18731;42.830;24.390;2023-07-20T12:11:09;12.30;;;3.40;;
32242;SDS011;18731;42.830;24.390;2023-07-20T12:13:44;7.57;;;2.90;;
32242;SDS011;18731;42.830;24.390;2023-07-20T12:16:11;8.20;;;3.05;;
32242;SDS011;18731;42.830;24.390;2023-07-20T12:18:41;7.30;;;3.10;;
32242;SDS011;18731;42.830;24.390;2023-07-20T12:21:08;10.10;;;3.03;;
32242;SDS011;18731;42.830;24.390;2023-07-20T12:23:35;6.70;;;3.20;;
32242;SDS011;18731;42.830;24.390;2023-07-20T12:26:03;7.03;;;3.00;;
32242;SDS011;18731;42.830;24.390;2023-07-20T12:28:32;13.98;;;3.63;;
32242;SDS011;18731;42.830;24.390;2023-07-20T12:30:58;7.85;;;3.33;;
32242;SDS011;18731;42.830;24.390;2023-07-20T12:33:23;10.07;;;3.67;;
32242;SDS011;18731;42.830;24.390;2023-07-20T12:35:49;9.70;;;3.30;;
32242;SDS011;18731;42.830;24.390;2023-07-20T12:38:15;9.07;;;3.60;;
32242;SDS011;18731;42.830;24.390;2023-07-20T12:40:41;10.27;;;4.55;;
32242;SDS011;18731;42.830;24.390;2023-07-20T12:43:07;7.93;;;3.92;;
32242;SDS011;18731;42.830;24.390;2023-07-20T12:45:33;7.93;;;3.75;;
32242;SDS011;18731;42.830;24.390;2023-07-20T12:47:59;9.55;;;3.78;;
32242;SDS011;18731;42.830;24.390;2023-07-20T12:50:25;7.88;;;3.63;;
32242;SDS011;18731;42.830;24.390;2023-07-20T12:52:50;8.80;;;3.92;;
32242;SDS011;18731;42.830;24.390;2023-07-20T12:55:16;13.30;;;4.22;;
32242;SDS011;18731;42.830;24.390;2023-07-20T12:57:41;11.35;;;4.65;;
32242;SDS011;18731;42.830;24.390;2023-07-20T13:00:08;14.73;;;4.32;;
32242;SDS011;18731;42.830;24.390;2023-07-20T13:02:35;11.32;;;4.43;;
32242;SDS011;18731;42.830;24.390;2023-07-20T13:05:01;15.80;;;4.78;;
32242;SDS011;18731;42.830;24.390;2023-07-20T13:09:58;11.65;;;5.00;;
32242;SDS011;18731;42.830;24.390;2023-07-20T13:12:29;11.07;;;4.65;;
32242;SDS011;18731;42.830;24.390;2023-07-20T13:14:56;10.32;;;4.00;;
32242;SDS011;18731;42.830;24.390;2023-07-20T13:17:25;9.80;;;4.05;;
32242;SDS011;18731;42.830;24.390;2023-07-20T13:19:56;10.85;;;4.28;;
32242;SDS011;18731;42.830;24.390;2023-07-20T13:22:22;11.98;;;4.90;;
32242;SDS011;18731;42.830;24.390;2023-07-20T13:24:48;16.13;;;4.43;;
32242;SDS011;18731;42.830;24.390;2023-07-20T13:27:18;9.90;;;4.20;;
32242;SDS011;18731;42.830;24.390;2023-07-20T13:29:44;14.60;;;4.68;;
32242;SDS011;18731;42.830;24.390;2023-07-20T13:32:13;11.15;;;4.57;;
32242;SDS011;18731;42.830;24.390;2023-07-20T13:34:46;13.52;;;4.53;;
32242;SDS011;18731;42.830;24.390;2023-07-20T13:37:12;13.50;;;4.72;;
32242;SDS011;18731;42.830;24.390;2023-07-20T13:39:38;10.43;;;3.85;;
32242;SDS011;18731;42.830;24.390;2023-07-20T13:42:04;12.27;;;4.45;;
32242;SDS011;18731;42.830;24.390;2023-07-20T13:44:32;11.35;;;4.28;;
32242;SDS011;18731;42.830;24.390;2023-07-20T13:46:58;13.48;;;3.78;;
32242;SDS011;18731;42.830;24.390;2023-07-20T13:49:23;14.90;;;4.55;;
32242;SDS011;18731;42.830;24.390;2023-07-20T13:51:49;9.57;;;3.72;;
32242;SDS011;18731;42.830;24.390;2023-07-20T13:54:15;14.25;;;4.50;;
32242;SDS011;18731;42.830;24.390;2023-07-20T13:56:41;13.90;;;4.45;;
32242;SDS011;18731;42.830;24.390;2023-07-20T13:59:07;9.07;;;4.47;;
32242;SDS011;18731;42.830;24.390;2023-07-20T14:01:32;9.93;;;4.15;;
32242;SDS011;18731;42.830;24.390;2023-07-20T14:03:59;14.57;;;4.18;;
32242;SDS011;18731;42.830;24.390;2023-07-20T14:06:25;11.00;;;4.28;;
32242;SDS011;18731;42.830;24.390;2023-07-20T14:08:51;13.25;;;3.88;;
32242;SDS011;18731;42.830;24.390;2023-07-20T14:11:18;14.38;;;4.35;;
32242;SDS011;18731;42.830;24.390;2023-07-20T14:13:44;13.40;;;4.05;;
32242;SDS011;18731;42.830;24.390;2023-07-20T14:16:09;11.50;;;3.80;;
32242;SDS011;18731;42.830;24.390;2023-07-20T14:18:35;9.27;;;3.88;;
32242;SDS011;18731;42.830;24.390;2023-07-20T14:21:01;11.43;;;3.90;;
32242;SDS011;18731;42.830;24.390;2023-07-20T14:23:28;12.55;;;4.15;;
32242;SDS011;18731;42.830;24.390;2023-07-20T14:25:54;15.77;;;4.10;;
32242;SDS011;18731;42.830;24.390;2023-07-20T14:28:20;16.40;;;4.32;;
32242;SDS011;18731;42.830;24.390;2023-07-20T14:30:46;10.43;;;3.42;;
32242;SDS011;18731;42.830;24.390;2023-07-20T14:33:12;12.93;;;3.97;;
32242;SDS011;18731;42.830;24.390;2023-07-20T14:35:37;10.90;;;4.43;;
32242;SDS011;18731;42.830;24.390;2023-07-20T14:38:03;9.48;;;3.40;;
32242;SDS011;18731;42.830;24.390;2023-07-20T14:40:29;10.32;;;3.60;;
32242;SDS011;18731;42.830;24.390;2023-07-20T14:42:57;11.77;;;3.80;;
32242;SDS011;18731;42.830;24.390;2023-07-20T14:45:26;9.32;;;3.50;;
32242;SDS011;18731;42.830;24.390;2023-07-20T14:47:52;12.48;;;3.50;;
32242;SDS011;18731;42.830;24.390;2023-07-20T14:50:19;11.32;;;3.55;;
32242;SDS011;18731;42.830;24.390;2023-07-20T14:52:45;9.60;;;3.72;;
32242;SDS011;18731;42.830;24.390;2023-07-20T14:55:11;10.45;;;3.53;;
32242;SDS011;18731;42.830;24.390;2023-07-20T14:57:37;9.68;;;3.22;;
32242;SDS011;18731;42.830;24.390;2023-07-20T15:00:03;10.93;;;3.20;;
32242;SDS011;18731;42.830;24.390;2023-07-20T15:02:36;8.48;;;3.10;;
32242;SDS011;18731;42.830;24.390;2023-07-20T15:05:02;11.05;;;2.90;;
32242;SDS011;18731;42.830;24.390;2023-07-20T15:07:28;12.15;;;2.92;;
32242;SDS011;18731;42.830;24.390;2023-07-20T15:09:54;5.57;;;2.80;;
32242;SDS011;18731;42.830;24.390;2023-07-20T15:12:19;6.85;;;2.70;;
32242;SDS011;18731;42.830;24.390;2023-07-20T15:14:49;8.52;;;2.95;;
32242;SDS011;18731;42.830;24.390;2023-07-20T15:17:36;7.18;;;2.80;;
32242;SDS011;18731;42.830;24.390;2023-07-20T15:20:03;9.38;;;3.17;;
32242;SDS011;18731;42.830;24.390;2023-07-20T15:22:33;10.18;;;2.88;;
32242;SDS011;18731;42.830;24.390;2023-07-20T15:25:01;11.45;;;3.25;;
32242;SDS011;18731;42.830;24.390;2023-07-20T15:27:29;11.07;;;2.80;;
32242;SDS011;18731;42.830;24.390;2023-07-20T15:29:55;11.75;;;2.70;;
32242;SDS011;18731;42.830;24.390;2023-07-20T15:32:20;5.05;;;2.40;;
32242;SDS011;18731;42.830;24.390;2023-07-20T15:34:46;5.90;;;2.72;;
32242;SDS011;18731;42.830;24.390;2023-07-20T15:37:12;7.95;;;3.35;;
32242;SDS011;18731;42.830;24.390;2023-07-20T15:39:38;12.63;;;2.97;;
32242;SDS011;18731;42.830;24.390;2023-07-20T15:42:05;6.88;;;2.60;;
32242;SDS011;18731;42.830;24.390;2023-07-20T15:44:31;7.95;;;2.58;;
32242;SDS011;18731;42.830;24.390;2023-07-20T15:46:57;12.75;;;3.45;;
32242;SDS011;18731;42.830;24.390;2023-07-20T15:49:23;10.45;;;3.00;;
32242;SDS011;18731;42.830;24.390;2023-07-20T15:51:52;14.63;;;3.38;;
32242;SDS011;18731;42.830;24.390;2023-07-20T15:54:19;11.13;;;2.90;;
32242;SDS011;18731;42.830;24.390;2023-07-20T15:56:46;8.77;;;3.03;;
32242;SDS011;18731;42.830;24.390;2023-07-20T15:59:12;11.48;;;3.63;;
32242;SDS011;18731;42.830;24.390;2023-07-20T16:01:39;8.85;;;3.03;;
32242;SDS011;18731;42.830;24.390;2023-07-20T16:04:07;9.07;;;2.90;;
32242;SDS011;18731;42.830;24.390;2023-07-20T16:06:33;14.15;;;3.33;;
32242;SDS011;18731;42.830;24.390;2023-07-20T16:09:01;11.88;;;3.33;;
32242;SDS011;18731;42.830;24.390;2023-07-20T16:11:30;11.25;;;3.13;;
32242;SDS011;18731;42.830;24.390;2023-07-20T16:13:57;9.02;;;2.70;;
32242;SDS011;18731;42.830;24.390;2023-07-20T16:16:22;8.63;;;3.15;;
32242;SDS011;18731;42.830;24.390;2023-07-20T16:18:48;9.00;;;3.00;;
32242;SDS011;18731;42.830;24.390;2023-07-20T16:21:21;13.38;;;3.17;;
32242;SDS011;18731;42.830;24.390;2023-07-20T16:23:46;14.18;;;3.10;;
32242;SDS011;18731;42.830;24.390;2023-07-20T16:26:12;14.75;;;3.25;;
32242;SDS011;18731;42.830;24.390;2023-07-20T16:28:38;15.93;;;3.20;;
32242;SDS011;18731;42.830;24.390;2023-07-20T16:31:14;10.10;;;3.10;;
32242;SDS011;18731;42.830;24.390;2023-07-20T16:33:41;11.05;;;2.95;;
32242;SDS011;18731;42.830;24.390;2023-07-20T16:36:11;10.82;;;3.03;;
32242;SDS011;18731;42.830;24.390;2023-07-20T16:38:38;7.80;;;3.05;;
32242;SDS011;18731;42.830;24.390;2023-07-20T16:41:05;17.60;;;3.70;;
32242;SDS011;18731;42.830;24.390;2023-07-20T16:43:32;8.23;;;3.50;;
32242;SDS011;18731;42.830;24.390;2023-07-20T16:46:02;9.70;;;2.88;;
32242;SDS011;18731;42.830;24.390;2023-07-20T16:48:29;12.38;;;3.40;;
32242;SDS011;18731;42.830;24.390;2023-07-20T16:50:55;10.82;;;3.75;;
32242;SDS011;18731;42.830;24.390;2023-07-20T16:53:21;10.30;;;3.40;;
32242;SDS011;18731;42.830;24.390;2023-07-20T16:55:51;9.65;;;3.13;;
32242;SDS011;18731;42.830;24.390;2023-07-20T16:58:18;10.05;;;3.50;;
32242;SDS011;18731;42.830;24.390;2023-07-20T17:00:47;10.02;;;3.00;;
32242;SDS011;18731;42.830;24.390;2023-07-20T17:03:14;13.68;;;3.15;;
32242;SDS011;18731;42.830;24.390;2023-07-20T17:05:43;7.95;;;3.55;;
32242;SDS011;18731;42.830;24.390;2023-07-20T17:08:09;7.72;;;3.40;;
32242;SDS011;18731;42.830;24.390;2023-07-20T17:10:35;11.98;;;3.47;;
32242;SDS011;18731;42.830;24.390;2023-07-20T17:13:02;11.40;;;3.45;;
32242;SDS011;18731;42.830;24.390;2023-07-20T17:15:32;11.98;;;3.53;;
32242;SDS011;18731;42.830;24.390;2023-07-20T17:17:58;10.75;;;3.25;;
32242;SDS011;18731;42.830;24.390;2023-07-20T17:20:23;8.40;;;3.60;;
32242;SDS011;18731;42.830;24.390;2023-07-20T17:22:49;12.00;;;3.45;;
32242;SDS011;18731;42.830;24.390;2023-07-20T17:25:15;12.93;;;3.50;;
32242;SDS011;18731;42.830;24.390;2023-07-20T17:27:41;8.20;;;3.20;;
32242;SDS011;18731;42.830;24.390;2023-07-20T17:30:08;16.50;;;3.40;;
32242;SDS011;18731;42.830;24.390;2023-07-20T17:32:34;13.27;;;3.80;;
32242;SDS011;18731;42.830;24.390;2023-07-20T17:35:00;9.43;;;3.38;;
32242;SDS011;18731;42.830;24.390;2023-07-20T17:37:26;13.50;;;3.60;;
32242;SDS011;18731;42.830;24.390;2023-07-20T17:39:52;14.50;;;3.63;;